Ames, IA (50010)

11:53 PM CDT on September 03, 2015 (GMT -0500)
Garden District | | Change Station
CLOSE
Current Station
Personal Weather Station
Location: Ames, IA
Elevation: 968 ft
Nearby Weather Stations

Elev 968 ft 42.04 °N, 93.61 °W | Updated 11 seconds ago

Partly Cloudy
Partly Cloudy
75.4 °F
Feels Like 76 °F
N
0.0
Wind Variable Wind from North
Gusts 0.0 mph

Today
High -- | Low -- °F
--% Chance of Precip.
Yesterday
High -- | Low -- °F
Precip. -- in
6:41 AM 7:45 PM
Waning Gibbous, 63% visible
Pressure 29.87 in
Visibility 10.0 miles
Clouds Few 12000 ft
Heat Index 76 °F
Dew Point 69 °F
Humidity 81%
Rainfall 0.00 in
Snow Depth Not available.
UV 0 out of 12
Pollen 11.50 out of 12
Air Quality Not available.
Flu Activity Not available.
METAR KAMW 040353Z AUTO 14004KT 10SM FEW120 24/22 A2990 RMK AO2 LTG DSNT E SLP115 T02390222
Pressure 29.87 in
Visibility 10.0 miles
Clouds Few 12000 ft
Heat Index 76 °F
Dew Point 69 °F
Humidity 81%
Rainfall 0.00 in
Snow Depth Not available.
UV 0 out of 12
Pollen 11.50 out of 12
Air Quality Not available.
Flu Activity Not available.
METAR KAMW 040353Z AUTO 14004KT 10SM FEW120 24/22 A2990 RMK AO2 LTG DSNT E SLP115 T02390222

10-Day Weather Forecast

×

Almanac

Astronomy

Sep. 03, 2015 Rise Set
Actual Time
Civil Twilight
Nautical Twilight
Astronomical Twilight
Moon
Length of Visible Light
Length of Day
Tomorrow will be .
, % of the Moon is Illuminated

Today's Extremes

State Highs State Lows

Community

WunderPhotos

Upload Photos

1,852,129 photos uploaded!

WunderBlogs® & News

Nearby

Air Quality

  Air Quality AQ Index Pollutant
Not available.

Snow Depth

Station Depth Elevation

Earthquake Activity

City Distance Mag. Time & Date
Minimum magnitude displayed is 2.5.

Coastal Water Temperatures

Place Temperature

Stations

Nearby Weather Stations

Station Location Temp. Windchill Dew Point Humidity Wind Precip. Elev Updated Type